Wetterdaten: Woche 03.08.15 - 09.08.15 (KW32)
Datum Zeit Temp. Aussen +5cm Feuchte Auss BlattFeu 1 Luftdruck Regen Sonnenschein Regendauer Solar Windben
03.08.2015 00:00 19,5 C 15,6 C 63 % 0 lf 1016,1 hPa 0,0 l/m 0,00 h 0,00 h 0 W/m 2,5 km/h (1 Bft)
03.08.2015 01:00 18,0 C 14,4 C 69 % 0 lf 1015,8 hPa 0,0 l/m 0,00 h 0,00 h 0 W/m 0,8 km/h (0 Bft)
03.08.2015 02:00 16,8 C 14,2 C 75 % 0 lf 1015,5 hPa 0,0 l/m 0,00 h 0,00 h 0 W/m 5,5 km/h (1 Bft)
03.08.2015 03:00 16,7 C 14,7 C 78 % 0 lf 1015,1 hPa 0,0 l/m 0,00 h 0,00 h 0 W/m 9,3 km/h (2 Bft)
03.08.2015 04:00 17,3 C 15,6 C 76 % 0 lf 1014,7 hPa 0,0 l/m 0,00 h 0,00 h 0 W/m 11,1 km/h (2 Bft)
03.08.2015 05:00 17,2 C 15,1 C 75 % 0 lf 1014,3 hPa 0,0 l/m 0,00 h 0,00 h 3 W/m 9,6 km/h (2 Bft)
03.08.2015 06:00 16,8 C 15,0 C 76 % 0 lf 1014,3 hPa 0,0 l/m 0,28 h 0,00 h 22 W/m 10,7 km/h (2 Bft)
03.08.2015 07:00 17,4 C 16,0 C 76 % 0 lf 1014,3 hPa 0,0 l/m 1,00 h 0,00 h 164 W/m 14,7 km/h (3 Bft)
03.08.2015 08:00 19,1 C 17,9 C 72 % 0 lf 1014,3 hPa 0,0 l/m 1,00 h 0,00 h 327 W/m 14,7 km/h (3 Bft)
03.08.2015 09:00 22,7 C 21,4 C 63 % 0 lf 1014,3 hPa 0,0 l/m 1,00 h 0,00 h 481 W/m 18,5 km/h (3 Bft)
03.08.2015 10:00 26,5 C 28,3 C 56 % 0 lf 1014,2 hPa 0,0 l/m 1,00 h 0,00 h 621 W/m 18,2 km/h (3 Bft)
03.08.2015 11:00 29,8 C 29,5 C 50 % 0 lf 1014,1 hPa 0,0 l/m 1,00 h 0,00 h 725 W/m 16,4 km/h (3 Bft)
03.08.2015 12:00 32,4 C 31,5 C 44 % 0 lf 1013,7 hPa 0,0 l/m 0,82 h 0,00 h 682 W/m 15,4 km/h (3 Bft)
03.08.2015 13:00 33,6 C 31,2 C 37 % 0 lf 1013,2 hPa 0,0 l/m 1,00 h 0,00 h 806 W/m 21,0 km/h (4 Bft)
03.08.2015 14:00 34,5 C 34,5 C 35 % 0 lf 1013,0 hPa 0,0 l/m 1,00 h 0,00 h 824 W/m 20,5 km/h (4 Bft)
03.08.2015 15:00 34,6 C 33,0 C 35 % 0 lf 1012,8 hPa 0,0 l/m 1,00 h 0,00 h 746 W/m 20,8 km/h (4 Bft)
03.08.2015 16:00 34,8 C 32,7 C 35 % 0 lf 1012,4 hPa 0,0 l/m 1,00 h 0,00 h 623 W/m 17,0 km/h (3 Bft)
03.08.2015 17:00 34,3 C 30,9 C 36 % 0 lf 1012,0 hPa 0,0 l/m 1,00 h 0,00 h 497 W/m 18,0 km/h (3 Bft)
03.08.2015 18:00 33,1 C 29,6 C 36 % 0 lf 1011,6 hPa 0,0 l/m 0,98 h 0,00 h 278 W/m 16,7 km/h (3 Bft)
03.08.2015 19:00 32,2 C 28,4 C 38 % 0 lf 1011,3 hPa 0,0 l/m 0,80 h 0,00 h 179 W/m 11,0 km/h (2 Bft)
03.08.2015 20:00 30,8 C 25,1 C 42 % 0 lf 1011,5 hPa 0,0 l/m 0,00 h 0,00 h 29 W/m 5,1 km/h (1 Bft)
03.08.2015 21:00 27,8 C 22,1 C 52 % 0 lf 1011,6 hPa 0,0 l/m 0,00 h 0,00 h 7 W/m 0,8 km/h (0 Bft)
03.08.2015 22:00 25,0 C 20,5 C 59 % 0 lf 1011,6 hPa 0,0 l/m 0,00 h 0,00 h 0 W/m 1,2 km/h (1 Bft)
03.08.2015 23:00 23,2 C 19,5 C 66 % 0 lf 1011,6 hPa 0,0 l/m 0,00 h 0,00 h 0 W/m 2,7 km/h (1 Bft)
04.08.2015 00:00 21,7 C 18,4 C 70 % 0 lf 1011,3 hPa 0,0 l/m 0,00 h 0,00 h 0 W/m 3,3 km/h (1 Bft)
04.08.2015 01:00 20,8 C 17,9 C 74 % 0 lf 1010,6 hPa 0,0 l/m 0,00 h 0,00 h 0 W/m 5,1 km/h (1 Bft)
04.08.2015 02:00 20,5 C 18,4 C 74 % 0 lf 1010,0 hPa 0,0 l/m 0,00 h 0,00 h 0 W/m 8,3 km/h (2 Bft)
04.08.2015 03:00 20,9 C 19,0 C 72 % 0 lf 1009,3 hPa 0,0 l/m 0,00 h 0,00 h 0 W/m 12,4 km/h (3 Bft)
04.08.2015 04:00 20,8 C 18,9 C 70 % 0 lf 1008,6 hPa 0,0 l/m 0,00 h 0,00 h 0 W/m 14,1 km/h (3 Bft)
04.08.2015 05:00 20,8 C 19,0 C 70 % 0 lf 1008,2 hPa 0,0 l/m 0,00 h 0,00 h 5 W/m 16,1 km/h (3 Bft)
04.08.2015 06:00 21,2 C 18,3 C 72 % 5 lf 1008,8 hPa 0,2 l/m 0,00 h 0,47 h 6 W/m 12,8 km/h (3 Bft)
04.08.2015 07:00 20,6 C 16,8 C 82 % 15 lf 1010,1 hPa 0,2 l/m 0,00 h 0,43 h 17 W/m 7,0 km/h (2 Bft)
04.08.2015 08:00 20,0 C 17,3 C 87 % 14 lf 1009,8 hPa 0,0 l/m 0,00 h 0,43 h 38 W/m 7,4 km/h (2 Bft)
04.08.2015 09:00 20,4 C 17,2 C 84 % 15 lf 1009,9 hPa 0,0 l/m 0,00 h 0,87 h 54 W/m 18,5 km/h (3 Bft)
04.08.2015 10:00 20,4 C 17,1 C 84 % 15 lf 1010,8 hPa 0,6 l/m 0,00 h 1,00 h 66 W/m 16,2 km/h (3 Bft)
04.08.2015 11:00 19,5 C 17,2 C 90 % 15 lf 1012,3 hPa 2,0 l/m 0,00 h 1,00 h 63 W/m 11,4 km/h (2 Bft)
04.08.2015 12:00 19,1 C 17,4 C 94 % 15 lf 1012,5 hPa 0,8 l/m 0,00 h 0,82 h 86 W/m 8,3 km/h (2 Bft)
04.08.2015 13:00 19,4 C 17,8 C 95 % 15 lf 1012,7 hPa 1,0 l/m 0,00 h 0,73 h 95 W/m 6,3 km/h (2 Bft)
04.08.2015 14:00 18,2 C 16,4 C 94 % 15 lf 1013,5 hPa 1,2 l/m 0,00 h 0,97 h 41 W/m 19,4 km/h (3 Bft)
04.08.2015 15:00 17,0 C 15,5 C 95 % 15 lf 1014,4 hPa 0,4 l/m 0,00 h 0,30 h 122 W/m 17,8 km/h (3 Bft)
04.08.2015 16:00 17,1 C 15,9 C 93 % 6 lf 1015,2 hPa 0,0 l/m 0,07 h 0,00 h 222 W/m 14,7 km/h (3 Bft)
04.08.2015 17:00 18,2 C 16,9 C 88 % 0 lf 1015,5 hPa 0,0 l/m 0,43 h 0,00 h 272 W/m 14,7 km/h (3 Bft)
04.08.2015 18:00 19,3 C 17,2 C 81 % 0 lf 1015,6 hPa 0,0 l/m 0,93 h 0,00 h 335 W/m 14,4 km/h (3 Bft)
04.08.2015 19:00 19,4 C 17,6 C 78 % 0 lf 1016,1 hPa 0,0 l/m 0,53 h 0,00 h 131 W/m 9,7 km/h (2 Bft)
04.08.2015 20:00 18,9 C 16,4 C 78 % 0 lf 1016,4 hPa 0,0 l/m 0,30 h 0,00 h 37 W/m 5,4 km/h (1 Bft)
04.08.2015 21:00 17,9 C 14,5 C 83 % 0 lf 1016,8 hPa 0,0 l/m 0,00 h 0,00 h 7 W/m 3,8 km/h (1 Bft)
04.08.2015 22:00 16,5 C 13,6 C 88 % 1 lf 1017,2 hPa 0,0 l/m 0,00 h 0,00 h 0 W/m 4,3 km/h (1 Bft)
04.08.2015 23:00 15,6 C 13,2 C 91 % 3 lf 1017,4 hPa 0,0 l/m 0,00 h 0,00 h 0 W/m 7,3 km/h (2 Bft)
05.08.2015 00:00 14,8 C 12,4 C 92 % 14 lf 1017,8 hPa 0,0 l/m 0,00 h 0,00 h 0 W/m 4,1 km/h (1 Bft)
05.08.2015 01:00 13,9 C 11,7 C 93 % 15 lf 1017,9 hPa 0,0 l/m 0,00 h 0,00 h 0 W/m 5,4 km/h (1 Bft)
05.08.2015 02:00 12,9 C 10,9 C 93 % 15 lf 1018,0 hPa 0,0 l/m 0,00 h 0,00 h 0 W/m 4,7 km/h (1 Bft)
05.08.2015 03:00 12,3 C 10,8 C 94 % 15 lf 1018,2 hPa 0,0 l/m 0,00 h 0,00 h 0 W/m 6,4 km/h (2 Bft)
05.08.2015 04:00 12,4 C 11,5 C 94 % 15 lf 1018,2 hPa 0,0 l/m 0,00 h 0,00 h 0 W/m 8,3 km/h (2 Bft)
05.08.2015 05:00 12,7 C 11,6 C 94 % 5 lf 1018,1 hPa 0,0 l/m 0,00 h 0,00 h 5 W/m 7,8 km/h (2 Bft)
05.08.2015 06:00 12,6 C 11,1 C 92 % 1 lf 1018,4 hPa 0,0 l/m 0,37 h 0,00 h 28 W/m 7,2 km/h (2 Bft)
05.08.2015 07:00 12,5 C 11,6 C 93 % 1 lf 1018,7 hPa 0,0 l/m 0,80 h 0,00 h 149 W/m 8,0 km/h (2 Bft)
05.08.2015 08:00 13,8 C 13,4 C 93 % 0 lf 1018,6 hPa 0,0 l/m 1,00 h 0,00 h 328 W/m 10,1 km/h (2 Bft)
05.08.2015 09:00 17,4 C 16,8 C 82 % 0 lf 1018,6 hPa 0,0 l/m 1,00 h 0,00 h 486 W/m 14,5 km/h (3 Bft)
05.08.2015 10:00 21,0 C 23,0 C 69 % 0 lf 1018,2 hPa 0,0 l/m 1,00 h 0,00 h 630 W/m 17,5 km/h (3 Bft)
05.08.2015 11:00 23,4 C 23,2 C 63 % 0 lf 1018,0 hPa 0,0 l/m 0,90 h 0,00 h 687 W/m 18,3 km/h (3 Bft)
05.08.2015 12:00 25,0 C 24,6 C 58 % 0 lf 1017,4 hPa 0,0 l/m 0,93 h 0,00 h 782 W/m 17,6 km/h (3 Bft)
05.08.2015 13:00 26,2 C 25,0 C 50 % 0 lf 1016,7 hPa 0,0 l/m 1,00 h 0,00 h 778 W/m 22,7 km/h (4 Bft)
05.08.2015 14:00 27,1 C 25,5 C 46 % 0 lf 1016,1 hPa 0,0 l/m 1,00 h 0,00 h 826 W/m 21,8 km/h (4 Bft)
05.08.2015 15:00 27,4 C 26,9 C 46 % 0 lf 1015,5 hPa 0,0 l/m 1,00 h 0,00 h 758 W/m 22,4 km/h (4 Bft)
05.08.2015 16:00 27,7 C 27,0 C 44 % 0 lf 1014,9 hPa 0,0 l/m 1,00 h 0,00 h 649 W/m 23,2 km/h (4 Bft)
05.08.2015 17:00 27,6 C 25,0 C 47 % 0 lf 1014,3 hPa 0,0 l/m 1,00 h 0,00 h 423 W/m 18,3 km/h (3 Bft)
05.08.2015 18:00 26,7 C 24,3 C 51 % 0 lf 1013,6 hPa 0,0 l/m 0,97 h 0,00 h 303 W/m 20,5 km/h (4 Bft)
05.08.2015 19:00 26,0 C 23,5 C 55 % 0 lf 1013,0 hPa 0,0 l/m 0,43 h 0,00 h 126 W/m 17,1 km/h (3 Bft)
05.08.2015 20:00 25,1 C 22,3 C 58 % 0 lf 1013,0 hPa 0,0 l/m 0,77 h 0,00 h 56 W/m 13,2 km/h (3 Bft)
05.08.2015 21:00 24,1 C 20,1 C 61 % 0 lf 1013,3 hPa 0,0 l/m 0,07 h 0,00 h 16 W/m 6,9 km/h (2 Bft)
05.08.2015 22:00 22,0 C 18,1 C 66 % 0 lf 1013,0 hPa 0,0 l/m 0,00 h 0,00 h 0 W/m 7,5 km/h (2 Bft)
05.08.2015 23:00 21,0 C 18,3 C 67 % 0 lf 1012,9 hPa 0,0 l/m 0,00 h 0,00 h 0 W/m 10,6 km/h (2 Bft)
06.08.2015 00:00 20,3 C 17,7 C 69 % 0 lf 1012,8 hPa 0,0 l/m 0,00 h 0,00 h 0 W/m 9,8 km/h (2 Bft)
06.08.2015 01:00 19,4 C 17,2 C 72 % 0 lf 1012,6 hPa 0,0 l/m 0,00 h 0,00 h 0 W/m 11,3 km/h (2 Bft)
06.08.2015 02:00 18,9 C 17,0 C 75 % 0 lf 1012,4 hPa 0,0 l/m 0,00 h 0,00 h 0 W/m 12,4 km/h (3 Bft)
06.08.2015 03:00 18,5 C 16,5 C 78 % 0 lf 1012,5 hPa 0,0 l/m 0,00 h 0,00 h 0 W/m 10,8 km/h (2 Bft)
06.08.2015 04:00 17,9 C 15,9 C 81 % 0 lf 1012,5 hPa 0,0 l/m 0,00 h 0,00 h 0 W/m 8,3 km/h (2 Bft)
06.08.2015 05:00 17,3 C 15,1 C 83 % 0 lf 1012,5 hPa 0,0 l/m 0,00 h 0,00 h 4 W/m 6,1 km/h (2 Bft)
06.08.2015 06:00 16,8 C 15,4 C 84 % 0 lf 1012,4 hPa 0,0 l/m 0,27 h 0,00 h 28 W/m 8,3 km/h (2 Bft)
06.08.2015 07:00 17,4 C 16,4 C 84 % 0 lf 1012,5 hPa 0,0 l/m 0,83 h 0,00 h 127 W/m 10,2 km/h (2 Bft)
06.08.2015 08:00 19,4 C 18,5 C 80 % 0 lf 1012,6 hPa 0,0 l/m 1,00 h 0,00 h 310 W/m 15,0 km/h (3 Bft)
06.08.2015 09:00 23,0 C 21,8 C 72 % 0 lf 1012,7 hPa 0,0 l/m 1,00 h 0,00 h 475 W/m 14,8 km/h (3 Bft)
06.08.2015 10:00 27,1 C 28,6 C 63 % 0 lf 1012,8 hPa 0,0 l/m 1,00 h 0,00 h 604 W/m 11,9 km/h (2 Bft)
06.08.2015 11:00 30,1 C 29,0 C 56 % 0 lf 1012,6 hPa 0,0 l/m 1,00 h 0,00 h 682 W/m 11,4 km/h (2 Bft)
06.08.2015 12:00 32,5 C 30,6 C 50 % 0 lf 1012,5 hPa 0,0 l/m 0,93 h 0,00 h 709 W/m 16,4 km/h (3 Bft)
06.08.2015 13:00 33,8 C 31,0 C 47 % 0 lf 1012,3 hPa 0,0 l/m 1,00 h 0,00 h 766 W/m 19,6 km/h (3 Bft)
06.08.2015 14:00 34,7 C 31,8 C 44 % 0 lf 1012,4 hPa 0,0 l/m 1,00 h 0,00 h 800 W/m 23,5 km/h (4 Bft)
06.08.2015 15:00 34,4 C 32,8 C 43 % 0 lf 1012,4 hPa 0,0 l/m 0,97 h 0,00 h 717 W/m 26,9 km/h (4 Bft)
06.08.2015 16:00 34,0 C 32,3 C 42 % 0 lf 1012,8 hPa 0,0 l/m 1,00 h 0,00 h 629 W/m 30,7 km/h (5 Bft)
06.08.2015 17:00 33,3 C 29,8 C 39 % 0 lf 1013,1 hPa 0,0 l/m 1,00 h 0,00 h 501 W/m 25,6 km/h (4 Bft)
06.08.2015 18:00 31,9 C 28,2 C 38 % 0 lf 1013,3 hPa 0,0 l/m 0,97 h 0,00 h 342 W/m 18,7 km/h (3 Bft)
06.08.2015 19:00 30,6 C 27,1 C 38 % 0 lf 1013,5 hPa 0,0 l/m 1,00 h 0,00 h 175 W/m 14,5 km/h (3 Bft)
06.08.2015 20:00 28,7 C 25,3 C 53 % 0 lf 1013,9 hPa 0,0 l/m 0,73 h 0,00 h 55 W/m 14,0 km/h (3 Bft)
06.08.2015 21:00 25,8 C 22,7 C 65 % 0 lf 1014,2 hPa 0,0 l/m 0,00 h 0,00 h 8 W/m 9,2 km/h (2 Bft)
06.08.2015 22:00 23,9 C 20,6 C 71 % 0 lf 1014,9 hPa 0,0 l/m 0,00 h 0,00 h 0 W/m 4,3 km/h (1 Bft)
06.08.2015 23:00 22,6 C 19,9 C 75 % 0 lf 1015,1 hPa 0,0 l/m 0,00 h 0,00 h 0 W/m 4,8 km/h (1 Bft)
07.08.2015 00:00 21,9 C 19,9 C 77 % 0 lf 1015,1 hPa 0,0 l/m 0,00 h 0,00 h 0 W/m 6,7 km/h (2 Bft)
07.08.2015 01:00 21,3 C 19,4 C 80 % 0 lf 1015,2 hPa 0,0 l/m 0,00 h 0,00 h 0 W/m 6,7 km/h (2 Bft)
07.08.2015 02:00 20,7 C 18,9 C 83 % 0 lf 1015,0 hPa 0,0 l/m 0,00 h 0,00 h 0 W/m 10,4 km/h (2 Bft)
07.08.2015 03:00 19,8 C 18,3 C 85 % 0 lf 1015,0 hPa 0,0 l/m 0,00 h 0,00 h 0 W/m 9,9 km/h (2 Bft)
07.08.2015 04:00 19,2 C 17,0 C 86 % 8 lf 1014,9 hPa 0,0 l/m 0,00 h 0,13 h 0 W/m 10,8 km/h (2 Bft)
07.08.2015 05:00 18,5 C 16,4 C 89 % 10 lf 1016,0 hPa 8,0 l/m 0,00 h 0,50 h 0 W/m 14,6 km/h (3 Bft)
07.08.2015 06:00 17,9 C 16,3 C 94 % 15 lf 1015,5 hPa 0,0 l/m 0,00 h 0,07 h 8 W/m 16,9 km/h (3 Bft)
07.08.2015 07:00 18,1 C 16,7 C 96 % 15 lf 1016,3 hPa 0,4 l/m 0,00 h 0,27 h 32 W/m 8,3 km/h (2 Bft)
07.08.2015 08:00 18,5 C 17,3 C 97 % 15 lf 1015,1 hPa 0,2 l/m 0,00 h 0,00 h 92 W/m 18,2 km/h (3 Bft)
07.08.2015 09:00 19,5 C 18,3 C 97 % 11 lf 1015,2 hPa 0,0 l/m 0,07 h 0,10 h 196 W/m 11,0 km/h (2 Bft)
07.08.2015 10:00 21,7 C 20,3 C 93 % 0 lf 1015,7 hPa 0,0 l/m 0,73 h 0,00 h 488 W/m 8,3 km/h (2 Bft)
07.08.2015 11:00 24,7 C 22,3 C 79 % 0 lf 1015,7 hPa 0,0 l/m 0,87 h 0,00 h 645 W/m 6,9 km/h (2 Bft)
07.08.2015 12:00 26,7 C 25,7 C 70 % 0 lf 1015,6 hPa 0,0 l/m 0,87 h 0,00 h 679 W/m 10,7 km/h (2 Bft)
07.08.2015 13:00 28,1 C 26,5 C 64 % 0 lf 1015,5 hPa 0,0 l/m 1,00 h 0,00 h 796 W/m 16,7 km/h (3 Bft)
07.08.2015 14:00 28,4 C 26,7 C 66 % 0 lf 1015,5 hPa 0,0 l/m 1,00 h 0,00 h 779 W/m 19,0 km/h (3 Bft)
07.08.2015 15:00 29,0 C 27,8 C 65 % 0 lf 1015,3 hPa 0,0 l/m 1,00 h 0,00 h 720 W/m 17,4 km/h (3 Bft)
07.08.2015 16:00 29,6 C 28,8 C 65 % 0 lf 1015,4 hPa 0,0 l/m 1,00 h 0,00 h 604 W/m 17,1 km/h (3 Bft)
07.08.2015 17:00 29,1 C 26,9 C 65 % 0 lf 1015,4 hPa 0,0 l/m 0,37 h 0,00 h 272 W/m 16,4 km/h (3 Bft)
07.08.2015 18:00 28,1 C 26,2 C 69 % 0 lf 1015,2 hPa 0,0 l/m 0,87 h 0,00 h 311 W/m 16,7 km/h (3 Bft)
07.08.2015 19:00 27,6 C 25,8 C 70 % 0 lf 1015,1 hPa 0,0 l/m 0,50 h 0,00 h 127 W/m 15,6 km/h (3 Bft)
07.08.2015 20:00 26,7 C 24,4 C 72 % 0 lf 1015,3 hPa 0,0 l/m 0,00 h 0,00 h 19 W/m 12,4 km/h (3 Bft)
07.08.2015 21:00 25,5 C 23,1 C 77 % 0 lf 1016,2 hPa 0,0 l/m 0,00 h 0,00 h 3 W/m 9,5 km/h (2 Bft)
07.08.2015 22:00 24,6 C 22,8 C 81 % 1 lf 1016,4 hPa 0,0 l/m 0,00 h 0,17 h 0 W/m 13,1 km/h (3 Bft)
07.08.2015 23:00 24,1 C 21,4 C 84 % 7 lf 1017,1 hPa 0,2 l/m 0,00 h 0,53 h 0 W/m 10,0 km/h (2 Bft)
08.08.2015 00:00 22,8 C 20,0 C 90 % 15 lf 1016,3 hPa 2,6 l/m 0,00 h 0,93 h 0 W/m 17,6 km/h (3 Bft)
08.08.2015 01:00 21,7 C 19,4 C 94 % 15 lf 1016,4 hPa 1,0 l/m 0,00 h 0,27 h 0 W/m 11,4 km/h (2 Bft)
08.08.2015 02:00 20,8 C 18,9 C 95 % 15 lf 1016,8 hPa 8,0 l/m 0,00 h 0,50 h 0 W/m 7,1 km/h (2 Bft)
08.08.2015 03:00 20,3 C 18,6 C 96 % 15 lf 1018,3 hPa 4,2 l/m 0,00 h 0,47 h 0 W/m 8,1 km/h (2 Bft)
08.08.2015 04:00 19,9 C 18,3 C 97 % 15 lf 1018,2 hPa 0,4 l/m 0,00 h 0,37 h 0 W/m 9,4 km/h (2 Bft)
08.08.2015 05:00 19,2 C 17,5 C 97 % 15 lf 1017,6 hPa 0,6 l/m 0,00 h 0,23 h 0 W/m 13,3 km/h (3 Bft)
08.08.2015 06:00 18,2 C 16,7 C 97 % 15 lf 1018,0 hPa 0,0 l/m 0,00 h 0,00 h 23 W/m 8,1 km/h (2 Bft)
08.08.2015 07:00 18,0 C 16,7 C 97 % 15 lf 1018,9 hPa 0,0 l/m 0,03 h 0,00 h 74 W/m 8,5 km/h (2 Bft)
08.08.2015 08:00 17,8 C 16,5 C 98 % 15 lf 1019,8 hPa 0,0 l/m 0,80 h 0,00 h 206 W/m 13,0 km/h (3 Bft)
08.08.2015 09:00 18,5 C 16,9 C 97 % 3 lf 1020,3 hPa 0,0 l/m 0,57 h 0,00 h 280 W/m 14,2 km/h (3 Bft)
08.08.2015 10:00 19,5 C 18,1 C 92 % 0 lf 1020,9 hPa 0,0 l/m 0,10 h 0,00 h 259 W/m 14,6 km/h (3 Bft)
08.08.2015 11:00 20,7 C 20,9 C 87 % 0 lf 1021,8 hPa 0,0 l/m 0,47 h 0,00 h 372 W/m 14,7 km/h (3 Bft)
08.08.2015 12:00 21,7 C 21,5 C 83 % 0 lf 1022,0 hPa 0,0 l/m 0,57 h 0,00 h 389 W/m 17,8 km/h (3 Bft)
08.08.2015 13:00 21,9 C 21,4 C 82 % 0 lf 1022,1 hPa 0,0 l/m 0,33 h 0,00 h 340 W/m 19,2 km/h (3 Bft)
08.08.2015 14:00 21,7 C 21,2 C 82 % 0 lf 1022,2 hPa 0,0 l/m 0,00 h 0,00 h 289 W/m 15,7 km/h (3 Bft)
08.08.2015 15:00 21,5 C 20,9 C 82 % 0 lf 1022,3 hPa 0,0 l/m 0,00 h 0,00 h 229 W/m 14,5 km/h (3 Bft)
08.08.2015 16:00 21,7 C 21,0 C 81 % 0 lf 1022,3 hPa 0,0 l/m 0,00 h 0,00 h 181 W/m 10,1 km/h (2 Bft)
08.08.2015 17:00 22,5 C 21,7 C 80 % 0 lf 1022,2 hPa 0,0 l/m 0,40 h 0,00 h 232 W/m 8,0 km/h (2 Bft)
08.08.2015 18:00 22,6 C 21,5 C 78 % 0 lf 1022,0 hPa 0,0 l/m 0,03 h 0,00 h 172 W/m 10,5 km/h (2 Bft)
08.08.2015 19:00 22,3 C 20,9 C 78 % 0 lf 1021,9 hPa 0,0 l/m 0,00 h 0,00 h 99 W/m 8,6 km/h (2 Bft)
08.08.2015 20:00 21,8 C 19,4 C 81 % 0 lf 1021,8 hPa 0,0 l/m 0,37 h 0,00 h 35 W/m 4,6 km/h (1 Bft)
08.08.2015 21:00 20,8 C 17,8 C 85 % 0 lf 1021,8 hPa 0,0 l/m 0,00 h 0,00 h 10 W/m 2,2 km/h (1 Bft)
08.08.2015 22:00 19,6 C 16,9 C 88 % 1 lf 1022,0 hPa 0,0 l/m 0,00 h 0,00 h 0 W/m 1,5 km/h (1 Bft)
08.08.2015 23:00 18,7 C 16,5 C 91 % 2 lf 1022,3 hPa 0,0 l/m 0,00 h 0,00 h 0 W/m 1,2 km/h (1 Bft)
09.08.2015 00:00 17,9 C 15,9 C 92 % 4 lf 1022,2 hPa 0,0 l/m 0,00 h 0,00 h 0 W/m 2,1 km/h (1 Bft)
09.08.2015 01:00 17,1 C 14,8 C 93 % 11 lf 1021,7 hPa 0,0 l/m 0,00 h 0,00 h 0 W/m 2,0 km/h (1 Bft)
09.08.2015 02:00 16,1 C 14,1 C 94 % 15 lf 1021,6 hPa 0,0 l/m 0,00 h 0,00 h 0 W/m 4,3 km/h (1 Bft)
09.08.2015 03:00 15,3 C 13,7 C 94 % 14 lf 1021,5 hPa 0,0 l/m 0,00 h 0,00 h 0 W/m 4,0 km/h (1 Bft)
09.08.2015 04:00 14,6 C 13,0 C 94 % 15 lf 1021,1 hPa 0,0 l/m 0,00 h 0,00 h 0 W/m 3,8 km/h (1 Bft)
09.08.2015 05:00 14,1 C 12,8 C 95 % 15 lf 1021,1 hPa 0,0 l/m 0,00 h 0,00 h 2 W/m 3,4 km/h (1 Bft)
09.08.2015 06:00 13,8 C 12,3 C 95 % 15 lf 1020,7 hPa 0,0 l/m 0,07 h 0,00 h 22 W/m 1,7 km/h (1 Bft)
09.08.2015 07:00 13,8 C 13,2 C 95 % 15 lf 1020,5 hPa 0,0 l/m 1,00 h 0,00 h 125 W/m 2,7 km/h (1 Bft)
09.08.2015 08:00 15,4 C 15,6 C 97 % 4 lf 1020,5 hPa 0,0 l/m 1,00 h 0,00 h 290 W/m 9,0 km/h (2 Bft)
09.08.2015 09:00 17,9 C 18,4 C 93 % 0 lf 1020,5 hPa 0,0 l/m 1,00 h 0,00 h 347 W/m 14,6 km/h (3 Bft)
09.08.2015 10:00 20,8 C 21,1 C 79 % 0 lf 1020,5 hPa 0,0 l/m 0,93 h 0,00 h 416 W/m 12,2 km/h (2 Bft)
09.08.2015 11:00 21,8 C 21,6 C 74 % 0 lf 1020,3 hPa 0,0 l/m 0,73 h 0,00 h 412 W/m 14,1 km/h (3 Bft)
09.08.2015 12:00 22,5 C 22,6 C 72 % 0 lf 1019,9 hPa 0,0 l/m 0,93 h 0,00 h 506 W/m 13,1 km/h (3 Bft)
09.08.2015 13:00 23,3 C 22,8 C 70 % 0 lf 1019,5 hPa 0,0 l/m 0,20 h 0,00 h 364 W/m 13,2 km/h (3 Bft)
09.08.2015 14:00 24,2 C 24,0 C 68 % 0 lf 1019,3 hPa 0,0 l/m 0,77 h 0,07 h 575 W/m 14,9 km/h (3 Bft)
09.08.2015 15:00 24,4 C 24,0 C 67 % 0 lf 1019,1 hPa 0,0 l/m 0,60 h 0,00 h 445 W/m 14,4 km/h (3 Bft)
09.08.2015 16:00 24,7 C 24,1 C 66 % 0 lf 1018,7 hPa 0,0 l/m 0,50 h 0,00 h 337 W/m 14,7 km/h (3 Bft)
09.08.2015 17:00 23,9 C 23,0 C 69 % 0 lf 1018,5 hPa 0,0 l/m 0,00 h 0,00 h 195 W/m 12,6 km/h (3 Bft)
09.08.2015 18:00 23,7 C 22,7 C 70 % 0 lf 1018,1 hPa 0,0 l/m 0,27 h 0,00 h 173 W/m 12,2 km/h (2 Bft)
09.08.2015 19:00 23,4 C 22,0 C 71 % 0 lf 1018,1 hPa 0,0 l/m 0,93 h 0,00 h 151 W/m 11,2 km/h (2 Bft)
09.08.2015 20:00 22,8 C 20,6 C 74 % 0 lf 1018,0 hPa 0,0 l/m 0,73 h 0,00 h 45 W/m 8,6 km/h (2 Bft)
09.08.2015 21:00 21,6 C 18,7 C 77 % 0 lf 1018,2 hPa 0,0 l/m 0,00 h 0,00 h 6 W/m 5,3 km/h (1 Bft)
09.08.2015 22:00 20,3 C 17,1 C 81 % 0 lf 1018,4 hPa 0,0 l/m 0,00 h 0,00 h 0 W/m 2,7 km/h (1 Bft)
09.08.2015 23:00 19,1 C 16,6 C 84 % 0 lf 1018,6 hPa 0,0 l/m 0,00 h 0,00 h 0 W/m 2,3 km/h (1 Bft)
Min-Datum _ 05.08.15 05.08.15 03.08.15 03.08.15 04.08.15 - - - - 03.08.15
_ Min-Zeit 03:36 02:22 14:38 00:00 05:48 - - - - 00:25
Minimum _ 12,2 C 10,6 C 33 % 0 lf 1007,9 hPa - - - - 0,0 km/h (0 Bft)
Max-Datum _ 03.08.15 03.08.15 07.08.15 04.08.15 08.08.15 08.08.15 03.08.15 04.08.15 05.08.15 03.08.15
_ Max-Zeit 14:38 14:28 09:36 06:44 16:02 02:18 06:40 06:20 12:34 15:46
Maximum _ 35,1 C 39,4 C 98 % 15 lf 1022,5 hPa 8,0 l/m 0,03 h 0,03 h 978 W/m 41,8 km/h
SW (6 Bft)
Durchschnitt _ 22,1 C 20,3 C 75 % 3 lf 1015,9 hPa #32,0 l/m #63:41 h #11:41 h 307 W/m 11,6 km/h (2 Bft)
© 2015 W. Hausmann